createdAt,value
2018-12-29T00:01:42.593Z,78.65
2018-12-29T00:04:12.140Z,78.78
2018-12-29T00:06:41.674Z,78.67
2018-12-29T00:09:11.232Z,78.76
2018-12-29T00:11:40.768Z,78.80
2018-12-29T00:14:10.321Z,78.68
2018-12-29T00:16:39.942Z,78.56
2018-12-29T00:19:11.195Z,78.52
2018-12-29T00:21:40.706Z,78.53
2018-12-29T00:24:10.317Z,78.50
2018-12-29T00:26:42.526Z,78.70
2018-12-29T00:29:12.260Z,78.66
2018-12-29T00:31:41.810Z,78.55
2018-12-29T00:34:11.361Z,78.78
2018-12-29T00:36:40.901Z,78.82
2018-12-29T00:39:13.647Z,79.10
2018-12-29T00:41:43.169Z,79.06
2018-12-29T00:44:12.732Z,79.13
2018-12-29T00:46:42.329Z,79.23
2018-12-29T00:49:11.915Z,79.18
2018-12-29T00:51:43.113Z,79.35
2018-12-29T00:54:12.659Z,79.51
2018-12-29T00:56:42.199Z,79.38
2018-12-29T00:59:12.768Z,79.47
2018-12-29T01:01:42.341Z,79.76
2018-12-29T01:04:11.893Z,79.75
2018-12-29T01:06:41.902Z,79.94
2018-12-29T01:09:11.429Z,80.01
2018-12-29T01:11:41.010Z,80.03
2018-12-29T01:14:10.569Z,79.96
2018-12-29T01:16:40.112Z,80.28
2018-12-29T01:19:09.668Z,80.27
2018-12-29T01:21:39.226Z,80.16
2018-12-29T01:24:08.753Z,80.12
2018-12-29T01:26:38.312Z,80.12
2018-12-29T01:29:09.084Z,80.00
2018-12-29T01:31:38.893Z,79.94
2018-12-29T01:34:08.419Z,79.89
2018-12-29T01:36:37.979Z,79.96
2018-12-29T01:39:07.700Z,80.14
2018-12-29T01:41:37.240Z,80.10
2018-12-29T01:44:06.786Z,80.17
2018-12-29T01:46:36.601Z,80.40
2018-12-29T01:49:06.147Z,80.51
2018-12-29T01:51:35.693Z,80.61
2018-12-29T01:54:05.256Z,80.61
2018-12-29T01:56:34.796Z,80.61
2018-12-29T01:59:04.330Z,80.42
2018-12-29T02:01:33.893Z,80.32
2018-12-29T02:04:03.433Z,80.35
2018-12-29T02:06:32.995Z,80.42
2018-12-29T02:09:02.950Z,80.41
2018-12-29T02:11:32.728Z,80.29
2018-12-29T02:14:02.277Z,80.28
2018-12-29T02:16:31.827Z,80.53
2018-12-29T02:19:01.447Z,80.67
2018-12-29T02:21:30.984Z,80.53
2018-12-29T02:24:00.778Z,80.65
2018-12-29T02:26:30.313Z,80.76
2018-12-29T02:29:01.154Z,80.72
2018-12-29T02:31:30.714Z,80.87
2018-12-29T02:34:00.293Z,80.83
2018-12-29T02:36:29.788Z,81.14
2018-12-29T02:38:59.345Z,81.23
2018-12-29T02:41:29.139Z,81.24
2018-12-29T02:43:58.943Z,81.37
2018-12-29T02:46:28.477Z,81.80
2018-12-29T02:48:58.025Z,82.03
2018-12-29T02:51:27.555Z,81.78
2018-12-29T02:53:57.377Z,81.84
2018-12-29T02:56:26.946Z,82.24
2018-12-29T02:58:56.469Z,82.13
2018-12-29T03:01:26.006Z,81.99
2018-12-29T03:03:55.542Z,81.81
2018-12-29T03:06:25.094Z,81.84
2018-12-29T03:08:54.672Z,81.83
2018-12-29T03:11:24.223Z,81.86
2018-12-29T03:13:53.755Z,81.84
2018-12-29T03:16:23.291Z,81.72
2018-12-29T03:18:52.871Z,81.68
2018-12-29T03:21:22.420Z,81.66
2018-12-29T03:23:52.040Z,81.63
2018-12-29T03:26:21.612Z,81.73
2018-12-29T03:28:51.176Z,82.01
2018-12-29T03:31:20.876Z,82.20
2018-12-29T03:33:50.448Z,82.25
2018-12-29T03:36:19.994Z,82.56
2018-12-29T03:38:49.552Z,82.68
2018-12-29T03:41:19.107Z,82.50
2018-12-29T03:43:48.649Z,82.59
2018-12-29T03:46:18.184Z,82.70
2018-12-29T03:48:47.765Z,82.65
2018-12-29T03:51:17.295Z,82.66
2018-12-29T03:53:46.841Z,82.53
2018-12-29T03:56:17.342Z,82.90
2018-12-29T03:58:46.884Z,82.86
2018-12-29T04:01:16.414Z,82.99
2018-12-29T04:03:45.980Z,83.09
2018-12-29T04:06:15.524Z,82.99
2018-12-29T04:09:05.797Z,82.95
2018-12-29T04:11:36.887Z,82.87
2018-12-29T04:14:06.430Z,82.91
2018-12-29T04:16:37.695Z,82.85
2018-12-29T04:19:07.192Z,82.87
2018-12-29T04:21:36.734Z,83.19
2018-12-29T04:24:06.288Z,83.49
2018-12-29T04:26:35.926Z,83.50
2018-12-29T04:29:05.446Z,83.49
2018-12-29T04:31:34.999Z,83.57
2018-12-29T04:34:04.554Z,83.52
2018-12-29T04:36:34.107Z,83.39
2018-12-29T04:39:04.384Z,83.49
2018-12-29T04:41:33.937Z,83.57
2018-12-29T04:44:03.476Z,83.63
2018-12-29T04:46:33.011Z,83.92
2018-12-29T04:49:02.556Z,84.20
2018-12-29T04:51:32.126Z,84.03
2018-12-29T04:54:01.665Z,83.78
2018-12-29T04:56:31.229Z,83.72
2018-12-29T04:59:00.783Z,83.78
2018-12-29T05:01:30.317Z,83.65
2018-12-29T05:03:59.881Z,83.67
2018-12-29T05:06:29.422Z,83.87
2018-12-29T05:08:58.981Z,84.00
2018-12-29T05:11:28.523Z,84.01
2018-12-29T05:13:58.060Z,83.88
2018-12-29T05:16:27.622Z,83.91
2018-12-29T05:18:57.178Z,84.00
2018-12-29T05:21:26.719Z,84.20
2018-12-29T05:23:56.279Z,84.23
2018-12-29T05:26:25.801Z,84.23
2018-12-29T05:28:55.365Z,84.36
2018-12-29T05:31:24.990Z,84.34
2018-12-29T05:33:54.532Z,84.65
2018-12-29T05:36:24.091Z,84.61
2018-12-29T05:38:53.611Z,84.56
2018-12-29T05:41:23.158Z,84.53
2018-12-29T05:43:52.705Z,84.43
2018-12-29T05:46:22.262Z,84.45
2018-12-29T05:48:51.795Z,84.37
2018-12-29T05:51:21.333Z,84.62
2018-12-29T05:53:50.867Z,84.95
2018-12-29T05:56:20.414Z,84.72
2018-12-29T05:58:50.021Z,84.55
2018-12-29T06:01:19.585Z,84.47
2018-12-29T06:03:49.149Z,84.47
2018-12-29T06:06:18.707Z,84.55
2018-12-29T06:08:48.265Z,84.62
2018-12-29T06:11:17.812Z,84.57
2018-12-29T06:13:47.360Z,84.48
2018-12-29T06:16:16.895Z,84.61
2018-12-29T06:18:46.430Z,84.57
2018-12-29T06:21:15.992Z,84.66
2018-12-29T06:23:45.542Z,84.86
2018-12-29T06:26:15.174Z,84.75
2018-12-29T06:28:44.726Z,84.72
2018-12-29T06:31:14.304Z,84.56
2018-12-29T06:33:45.483Z,84.46
2018-12-29T06:36:15.015Z,84.56
2018-12-29T06:38:44.571Z,84.55
2018-12-29T06:41:14.122Z,84.60
2018-12-29T06:43:43.655Z,84.65
2018-12-29T06:46:13.415Z,84.96
2018-12-29T06:48:42.963Z,84.86
2018-12-29T06:51:12.511Z,84.76
2018-12-29T06:53:42.053Z,84.74
2018-12-29T06:56:11.593Z,84.73
2018-12-29T06:58:41.146Z,84.59
2018-12-29T07:01:10.678Z,84.72
2018-12-29T07:03:40.233Z,84.60
2018-12-29T07:06:09.780Z,84.87
2018-12-29T07:08:39.342Z,84.75
2018-12-29T07:11:08.870Z,84.79
2018-12-29T07:13:38.427Z,84.79
2018-12-29T07:16:07.958Z,84.90
2018-12-29T07:18:37.500Z,84.82
2018-12-29T07:21:07.042Z,84.75
2018-12-29T07:23:36.580Z,84.68
2018-12-29T07:26:06.151Z,84.49
2018-12-29T07:28:35.688Z,84.48
2018-12-29T07:31:05.226Z,84.87
2018-12-29T07:33:34.862Z,84.98
2018-12-29T07:36:04.419Z,85.01
2018-12-29T07:38:34.005Z,84.97
2018-12-29T07:41:03.538Z,84.96
2018-12-29T07:43:33.186Z,84.79
2018-12-29T07:46:03.659Z,84.81
2018-12-29T07:48:33.201Z,84.90
2018-12-29T07:51:04.300Z,84.83
2018-12-29T07:53:33.815Z,84.76
2018-12-29T07:56:03.368Z,84.80
2018-12-29T07:58:32.931Z,84.75
2018-12-29T08:01:02.470Z,84.75
2018-12-29T08:03:32.009Z,85.22
2018-12-29T08:06:01.569Z,84.97
2018-12-29T08:08:31.111Z,84.99
2018-12-29T08:11:00.761Z,84.84
2018-12-29T08:13:30.330Z,84.80
2018-12-29T08:16:01.326Z,84.86
2018-12-29T08:18:32.586Z,84.94
2018-12-29T08:21:04.863Z,84.82
2018-12-29T08:23:34.443Z,84.85
2018-12-29T08:26:04.009Z,84.85
2018-12-29T08:28:33.563Z,84.82
2018-12-29T08:31:05.180Z,84.86
2018-12-29T08:33:34.741Z,84.79
2018-12-29T08:36:04.291Z,84.76
2018-12-29T08:38:33.885Z,84.81
2018-12-29T08:41:04.480Z,84.87
2018-12-29T08:43:37.003Z,84.66
2018-12-29T08:46:08.049Z,84.52
2018-12-29T08:48:37.693Z,84.59
2018-12-29T08:51:07.205Z,84.51
2018-12-29T08:53:36.760Z,84.61
2018-12-29T08:56:06.307Z,84.62
2018-12-29T08:58:36.399Z,84.58
2018-12-29T09:01:06.247Z,84.41
2018-12-29T09:03:35.888Z,84.44
2018-12-29T09:06:05.528Z,84.85
2018-12-29T09:08:42.160Z,84.78
2018-12-29T09:11:11.830Z,84.61
2018-12-29T09:13:41.373Z,84.48
2018-12-29T09:16:11.198Z,84.44
2018-12-29T09:18:41.682Z,84.47
2018-12-29T09:21:11.238Z,84.34
2018-12-29T09:23:42.567Z,84.47
2018-12-29T09:26:13.912Z,84.49
2018-12-29T09:28:43.891Z,84.59
2018-12-29T09:31:13.426Z,84.46
2018-12-29T09:33:43.046Z,84.59
2018-12-29T09:36:13.153Z,84.66
2018-12-29T09:38:42.690Z,84.41
2018-12-29T09:41:12.440Z,84.30
2018-12-29T09:43:41.972Z,84.31
2018-12-29T09:46:11.623Z,84.43
2018-12-29T09:48:41.138Z,84.26
2018-12-29T09:51:10.705Z,84.40
2018-12-29T09:53:41.173Z,84.11
2018-12-29T09:56:10.738Z,84.13
2018-12-29T09:58:40.310Z,84.13
2018-12-29T10:01:09.883Z,84.11
2018-12-29T10:03:41.830Z,83.92
2018-12-29T10:06:11.360Z,83.85
2018-12-29T10:08:40.939Z,83.96
2018-12-29T10:11:10.482Z,83.96
2018-12-29T10:13:40.040Z,83.93
2018-12-29T10:16:10.779Z,84.03
2018-12-29T10:18:40.831Z,84.21
2018-12-29T10:21:10.731Z,84.22
2018-12-29T10:23:43.163Z,84.19
2018-12-29T10:26:13.253Z,84.07
2018-12-29T10:28:42.808Z,84.14
2018-12-29T10:31:12.434Z,84.08
2018-12-29T10:33:42.032Z,84.03
2018-12-29T10:36:11.592Z,83.98
2018-12-29T10:38:41.622Z,83.92
2018-12-29T10:41:13.572Z,83.93
2018-12-29T10:43:43.115Z,83.83
2018-12-29T10:46:13.097Z,83.70
2018-12-29T10:48:42.762Z,83.43
2018-12-29T10:51:12.625Z,83.43
2018-12-29T10:53:42.631Z,83.36
2018-12-29T10:56:12.808Z,83.33
2018-12-29T10:58:43.405Z,83.29
2018-12-29T11:01:13.438Z,83.35
2018-12-29T11:03:43.729Z,83.10
2018-12-29T11:06:13.960Z,82.69
2018-12-29T11:08:44.134Z,82.46
2018-12-29T11:11:14.920Z,82.50
2018-12-29T11:13:45.210Z,82.34
2018-12-29T11:16:16.888Z,82.26
2018-12-29T11:18:48.411Z,82.15
2018-12-29T11:21:18.771Z,82.08
2018-12-29T11:23:49.094Z,81.98
2018-12-29T11:26:19.113Z,81.96
2018-12-29T11:28:48.685Z,81.86
2018-12-29T11:31:19.697Z,81.85
2018-12-29T11:33:53.883Z,81.76
2018-12-29T11:36:23.446Z,81.63
2018-12-29T11:38:53.780Z,81.68
2018-12-29T11:41:24.098Z,81.52
2018-12-29T11:43:53.708Z,81.59
2018-12-29T11:46:23.523Z,81.55
2018-12-29T11:48:54.692Z,81.37
2018-12-29T11:51:25.925Z,81.24
2018-12-29T11:53:55.487Z,81.37
2018-12-29T11:56:25.083Z,81.18
2018-12-29T11:58:54.587Z,80.87
2018-12-29T12:01:24.397Z,81.10
2018-12-29T12:03:55.669Z,80.79
2018-12-29T12:06:25.200Z,80.73
2018-12-29T12:08:54.906Z,80.61
2018-12-29T12:11:24.454Z,80.69
2018-12-29T12:13:54.002Z,80.83
2018-12-29T12:16:23.793Z,80.64
2018-12-29T12:18:53.440Z,80.54
2018-12-29T12:21:22.982Z,80.34
2018-12-29T12:23:53.712Z,80.16
2018-12-29T12:26:24.222Z,80.18
2018-12-29T12:28:54.931Z,80.14
2018-12-29T12:31:27.652Z,80.02
2018-12-29T12:33:57.506Z,79.92
2018-12-29T12:36:27.323Z,79.97
2018-12-29T12:38:56.871Z,80.04
2018-12-29T12:41:27.132Z,80.16
2018-12-29T12:43:56.986Z,80.18
2018-12-29T12:46:26.516Z,80.00
2018-12-29T12:48:56.495Z,79.84
2018-12-29T12:51:26.153Z,80.00
2018-12-29T12:53:59.447Z,79.96
2018-12-29T12:56:29.078Z,80.17
2018-12-29T12:58:58.654Z,80.05
2018-12-29T13:01:28.732Z,79.99
2018-12-29T13:03:58.824Z,79.95
2018-12-29T13:06:28.412Z,79.85
2018-12-29T13:08:57.974Z,79.71
2018-12-29T13:11:28.299Z,79.67
2018-12-29T13:13:58.688Z,79.62
2018-12-29T13:16:28.267Z,79.46
2018-12-29T13:18:58.038Z,79.45
2018-12-29T13:21:28.761Z,79.42
2018-12-29T13:23:59.419Z,79.23
2018-12-29T13:26:29.197Z,79.30
2018-12-29T13:28:59.099Z,79.23
2018-12-29T13:31:28.636Z,79.20
2018-12-29T13:33:58.485Z,78.99
2018-12-29T13:36:28.306Z,78.89
2018-12-29T13:38:58.426Z,78.87
2018-12-29T13:41:28.987Z,78.99
2018-12-29T13:44:01.246Z,78.92
2018-12-29T13:46:31.593Z,78.94
2018-12-29T13:49:04.182Z,78.75
2018-12-29T13:51:34.699Z,78.83
2018-12-29T13:54:04.656Z,78.76
2018-12-29T13:56:34.447Z,78.54
2018-12-29T13:59:04.647Z,78.57
2018-12-29T14:01:34.233Z,78.68
2018-12-29T14:04:04.911Z,78.58
2018-12-29T14:06:35.942Z,78.59
2018-12-29T14:09:07.479Z,78.73
2018-12-29T14:11:37.571Z,78.67
2018-12-29T14:14:07.685Z,78.80
2018-12-29T14:16:38.264Z,78.61
2018-12-29T14:19:08.432Z,78.59
2018-12-29T14:21:38.692Z,78.70
2018-12-29T14:24:08.705Z,78.78
2018-12-29T14:26:39.916Z,78.82
2018-12-29T14:29:11.587Z,78.77
2018-12-29T14:31:44.043Z,78.88
2018-12-29T14:34:14.187Z,78.96
2018-12-29T14:36:44.253Z,78.83
2018-12-29T14:39:15.920Z,78.94
2018-12-29T14:41:45.422Z,78.74
2018-12-29T14:44:15.008Z,78.78
2018-12-29T14:46:44.637Z,78.80
2018-12-29T14:49:14.584Z,78.89
2018-12-29T14:51:45.149Z,78.79
2018-12-29T14:54:15.383Z,78.95
2018-12-29T14:56:45.525Z,79.24
2018-12-29T14:59:18.200Z,79.58
2018-12-29T15:01:48.699Z,79.93
2018-12-29T15:04:18.715Z,79.92
2018-12-29T15:06:49.731Z,80.23
2018-12-29T15:09:19.767Z,80.77
2018-12-29T15:11:49.364Z,80.74
2018-12-29T15:14:20.416Z,81.00
2018-12-29T15:16:50.743Z,81.45
2018-12-29T15:19:21.092Z,81.68
2018-12-29T15:21:51.514Z,81.82
2018-12-29T15:24:21.690Z,82.26
2018-12-29T15:26:52.051Z,82.64
2018-12-29T15:29:22.521Z,83.08
2018-12-29T15:31:52.550Z,83.07
2018-12-29T15:34:22.478Z,83.05
2018-12-29T15:36:52.478Z,83.06
2018-12-29T15:39:22.671Z,83.15
2018-12-29T15:41:52.958Z,83.37
2018-12-29T15:44:24.338Z,83.36
2018-12-29T15:46:54.810Z,83.93
2018-12-29T15:49:24.795Z,84.25
2018-12-29T15:51:54.547Z,84.87
2018-12-29T15:54:24.371Z,85.09
2018-12-29T15:56:54.438Z,85.49
2018-12-29T15:59:24.722Z,85.72
2018-12-29T16:01:54.648Z,85.61
2018-12-29T16:04:24.468Z,85.62
2018-12-29T16:06:54.422Z,85.69
2018-12-29T16:09:24.630Z,86.05
2018-12-29T16:11:54.827Z,86.19
2018-12-29T16:14:24.667Z,86.38
2018-12-29T16:16:54.379Z,86.38
2018-12-29T16:19:24.112Z,86.31
2018-12-29T16:21:53.690Z,86.12
2018-12-29T16:24:27.616Z,86.40
2018-12-29T16:26:57.209Z,86.53
2018-12-29T16:29:27.175Z,86.77
2018-12-29T16:31:57.057Z,86.93
2018-12-29T16:34:26.885Z,86.86
2018-12-29T16:36:56.473Z,86.88
2018-12-29T16:39:26.021Z,86.91
2018-12-29T16:41:55.558Z,86.83
2018-12-29T16:44:25.114Z,86.91
2018-12-29T16:46:56.431Z,86.96
2018-12-29T16:49:26.947Z,86.87
2018-12-29T16:51:56.647Z,86.79
2018-12-29T16:54:26.319Z,86.70
2018-12-29T16:56:56.193Z,86.85
2018-12-29T16:59:27.395Z,86.91
2018-12-29T17:01:58.437Z,86.67
2018-12-29T17:04:28.322Z,86.83
2018-12-29T17:06:58.102Z,86.74
2018-12-29T17:09:28.471Z,86.61
2018-12-29T17:11:58.121Z,86.49
2018-12-29T17:14:27.648Z,86.23
2018-12-29T17:16:57.198Z,86.22
2018-12-29T17:19:30.010Z,86.04
2018-12-29T17:21:59.747Z,85.97
2018-12-29T17:24:29.359Z,86.00
2018-12-29T17:26:58.901Z,86.17
2018-12-29T17:29:28.548Z,86.20
2018-12-29T17:31:58.425Z,86.21
2018-12-29T17:34:28.267Z,86.15
2018-12-29T17:36:58.162Z,86.10
2018-12-29T17:39:27.869Z,86.17
2018-12-29T17:41:57.612Z,86.19
2018-12-29T17:44:27.471Z,86.28
2018-12-29T17:46:57.175Z,86.15
2018-12-29T17:49:26.714Z,86.51
2018-12-29T17:51:56.779Z,86.70
2018-12-29T17:54:26.561Z,86.41
2018-12-29T17:56:57.601Z,86.54
2018-12-29T17:59:27.223Z,86.68
2018-12-29T18:01:56.778Z,86.61
2018-12-29T18:04:26.469Z,86.62
2018-12-29T18:06:56.251Z,86.75
2018-12-29T18:09:26.169Z,86.39
2018-12-29T18:11:56.216Z,86.33
2018-12-29T18:14:26.008Z,86.49
2018-12-29T18:16:55.802Z,86.51
2018-12-29T18:19:30.746Z,86.51
2018-12-29T18:21:57.265Z,86.74
2018-12-29T18:24:28.041Z,86.76
2018-12-29T18:26:57.736Z,86.78
2018-12-29T18:29:27.665Z,86.81
2018-12-29T18:31:57.489Z,86.92
2018-12-29T18:34:27.350Z,86.87
2018-12-29T18:36:58.788Z,86.67
2018-12-29T18:43:24.288Z,86.47
2018-12-29T18:46:02.138Z,86.74
2018-12-29T18:48:35.995Z,86.76
2018-12-29T18:51:09.592Z,86.64
2018-12-29T18:57:00.223Z,86.42
2018-12-29T19:00:14.538Z,86.69
2018-12-29T19:02:39.864Z,86.65
2018-12-29T19:05:14.014Z,86.96
2018-12-29T19:07:46.395Z,87.20
2018-12-29T19:10:20.755Z,86.99
2018-12-29T19:13:21.010Z,87.26
2018-12-29T19:15:35.819Z,86.99
2018-12-29T19:18:16.851Z,86.84
2018-12-29T19:20:56.947Z,87.17
2018-12-29T19:23:27.132Z,87.20
2018-12-29T19:26:11.826Z,87.62
2018-12-29T19:28:44.836Z,87.27
2018-12-29T19:31:24.548Z,87.26
2018-12-29T19:33:59.581Z,87.53
2018-12-29T19:36:41.924Z,87.30
2018-12-29T19:39:11.907Z,87.56
2018-12-29T19:41:54.778Z,87.50
2018-12-29T19:47:22.326Z,87.38
2018-12-29T19:56:18.767Z,87.18
2018-12-29T19:59:23.032Z,86.76
2018-12-29T20:02:07.490Z,86.54
2018-12-29T20:05:00.731Z,86.29
2018-12-29T20:07:25.955Z,86.02
2018-12-29T20:16:23.844Z,85.61
2018-12-29T20:32:37.942Z,83.59
2018-12-29T20:36:02.952Z,82.97
2018-12-29T20:41:42.962Z,82.05
2018-12-29T20:44:52.427Z,82.14
2018-12-29T21:01:56.902Z,82.07
2018-12-29T21:07:56.019Z,81.48
2018-12-29T21:11:05.295Z,81.39
2018-12-29T21:14:12.185Z,81.28
2018-12-29T21:17:19.150Z,80.66
2018-12-29T21:20:17.144Z,80.27
2018-12-29T21:23:18.239Z,79.15
2018-12-29T21:29:54.791Z,76.43
2018-12-29T21:39:07.423Z,76.12
2018-12-29T21:41:49.581Z,75.80
2018-12-29T21:51:58.957Z,74.17
2018-12-29T21:55:23.709Z,73.48
2018-12-29T22:01:29.357Z,72.38
2018-12-29T22:04:18.228Z,71.94
2018-12-29T22:07:24.803Z,71.98
2018-12-29T22:10:14.125Z,71.73
2018-12-29T22:12:43.739Z,71.83
2018-12-29T22:15:13.275Z,72.11
2018-12-29T22:17:45.225Z,72.31
2018-12-29T22:20:15.982Z,72.42
2018-12-29T22:22:45.534Z,72.60
2018-12-29T22:25:15.200Z,72.67
2018-12-29T22:27:44.781Z,72.93
2018-12-29T22:30:15.942Z,72.87
2018-12-29T22:32:45.569Z,72.73
2018-12-29T22:35:15.146Z,72.48
2018-12-29T22:37:44.666Z,72.65
2018-12-29T22:40:14.516Z,71.96
2018-12-29T22:42:44.087Z,72.50
2018-12-29T22:45:13.713Z,72.57
2018-12-29T22:47:45.300Z,72.63
2018-12-29T22:50:14.819Z,72.85
2018-12-29T22:52:45.517Z,73.09
2018-12-29T22:55:19.621Z,73.21
2018-12-29T22:57:49.172Z,73.29
2018-12-29T23:02:48.737Z,73.63
2018-12-29T23:05:18.946Z,74.07
2018-12-29T23:07:48.509Z,73.98
2018-12-29T23:10:18.446Z,74.04
2018-12-29T23:12:48.062Z,73.97
2018-12-29T23:15:17.793Z,74.10
2018-12-29T23:17:47.337Z,74.10
2018-12-29T23:20:16.883Z,74.49
2018-12-29T23:22:46.415Z,74.49
2018-12-29T23:25:16.052Z,74.30
2018-12-29T23:27:45.816Z,74.30
2018-12-29T23:30:15.341Z,74.28
2018-12-29T23:32:45.099Z,74.24
2018-12-29T23:35:14.648Z,74.53
2018-12-29T23:37:44.187Z,74.47
2018-12-29T23:40:13.816Z,74.55
2018-12-29T23:42:43.360Z,74.79
2018-12-29T23:45:13.257Z,74.37
2018-12-29T23:47:42.961Z,74.51
2018-12-29T23:50:13.645Z,74.47
2018-12-29T23:52:43.544Z,74.27
2018-12-29T23:55:13.088Z,74.33
2018-12-29T23:57:42.618Z,74.22
